Time;durP1;ratioP1;P1;durP2;ratioP2;P2;SDS_P1;SDS_P2;PMS_P1;PMS_P2;Temp;Humidity;BMP_temperature;BMP_pressure;BME280_temperature;BME280_humidity;BME280_pressure;Samples;Min_cycle;Max_cycle;Signal;HPM_P1;HPM_P2
2021/05/03 00:00:31;;;;;;;13.00;7.97;;;;;;;;;;5069508;28;20040;-60
2021/05/03 00:02:58;;;;;;;10.90;8.10;;;;;;;;;;5070659;28;20072;-62
2021/05/03 00:05:27;;;;;;;13.07;8.80;;;;;;;;;;5069500;28;20495;-60
2021/05/03 00:07:54;;;;;;;13.65;9.05;;;;;;;;;;5070537;28;20068;-60
2021/05/03 00:10:22;;;;;;;12.75;9.00;;;;;;;;;;5070318;28;20403;-61
2021/05/03 00:12:49;;;;;;;14.00;8.43;;;;;;;;;;5070796;28;20087;-60
2021/05/03 00:15:17;;;;;;;9.93;7.15;;;;;;;;;;5070387;28;20083;-60
2021/05/03 00:17:44;;;;;;;12.30;8.45;;;;;;;;;;5069969;28;20056;-59
2021/05/03 00:20:12;;;;;;;13.13;8.18;;;;;;;;;;5070080;28;20049;-61
2021/05/03 00:22:41;;;;;;;11.43;8.07;;;;;;;;;;5070442;28;20091;-60
2021/05/03 00:25:09;;;;;;;11.43;8.10;;;;;;;;;;5070367;28;20056;-61
2021/05/03 00:27:36;;;;;;;12.73;8.23;;;;;;;;;;5071412;28;20402;-60
2021/05/03 00:30:04;;;;;;;13.73;8.95;;;;;;;;;;5069806;28;20083;-59
2021/05/03 00:32:31;;;;;;;12.23;8.02;;;;;;;;;;5069847;28;20565;-59
2021/05/03 00:34:58;;;;;;;11.68;8.02;;;;;;;;;;5068922;28;20114;-59
2021/05/03 00:37:26;;;;;;;12.43;7.28;;;;;;;;;;5069096;28;20052;-60
2021/05/03 00:39:54;;;;;;;11.25;8.13;;;;;;;;;;5068995;28;20187;-60
2021/05/03 00:42:21;;;;;;;13.57;8.38;;;;;;;;;;5069872;28;20044;-60
2021/05/03 00:44:50;;;;;;;13.00;8.68;;;;;;;;;;5073369;28;20048;-60
2021/05/03 00:47:18;;;;;;;12.30;8.48;;;;;;;;;;5069877;28;20106;-60
2021/05/03 00:49:46;;;;;;;11.70;8.27;;;;;;;;;;5068954;28;20395;-60
2021/05/03 00:52:14;;;;;;;10.88;7.68;;;;;;;;;;5069699;28;20139;-60
2021/05/03 00:54:41;;;;;;;11.73;8.40;;;;;;;;;;5068617;28;20468;-59
2021/05/03 00:57:09;;;;;;;11.77;8.48;;;;;;;;;;5061921;28;20048;-60
2021/05/03 00:59:38;;;;;;;11.43;7.82;;;;;;;;;;5069892;28;20373;-60
2021/05/03 01:02:06;;;;;;;12.52;7.60;;;;;;;;;;5070297;28;20052;-60
2021/05/03 01:04:33;;;;;;;13.95;8.43;;;;;;;;;;5084721;23;20104;-65
2021/05/03 01:07:00;;;;;;;11.95;7.78;;;;;;;;;;5071633;28;20126;-65
2021/05/03 01:09:28;;;;;;;11.13;7.75;;;;;;;;;;5068352;28;20083;-66
2021/05/03 01:11:55;;;;;;;12.63;7.88;;;;;;;;;;5072034;28;20127;-65
2021/05/03 01:14:23;;;;;;;11.55;7.75;;;;;;;;;;5073232;28;20072;-66
2021/05/03 01:16:50;;;;;;;14.45;8.40;;;;;;;;;;5073179;28;20080;-66
2021/05/03 01:19:20;;;;;;;11.73;7.43;;;;;;;;;;5073417;28;20044;-66
2021/05/03 01:21:49;;;;;;;11.05;7.97;;;;;;;;;;5073498;28;20076;-65
2021/05/03 01:24:17;;;;;;;12.57;8.20;;;;;;;;;;5073449;28;20084;-67
2021/05/03 01:26:45;;;;;;;10.70;7.95;;;;;;;;;;5073159;28;20071;-65
2021/05/03 01:29:12;;;;;;;11.50;8.40;;;;;;;;;;5072090;28;20121;-66
2021/05/03 01:31:40;;;;;;;11.38;7.43;;;;;;;;;;5073494;28;20040;-66
2021/05/03 01:34:08;;;;;;;13.30;8.93;;;;;;;;;;5073202;28;20048;-64
2021/05/03 01:36:36;;;;;;;15.63;9.02;;;;;;;;;;5072720;28;20447;-65
2021/05/03 01:39:06;;;;;;;12.32;8.13;;;;;;;;;;5072979;28;20094;-66
2021/05/03 01:41:34;;;;;;;14.07;10.13;;;;;;;;;;5073142;28;20454;-66
2021/05/03 01:44:02;;;;;;;12.95;8.23;;;;;;;;;;5073234;28;20186;-64
2021/05/03 01:46:29;;;;;;;12.25;8.85;;;;;;;;;;5071944;28;20037;-66
2021/05/03 01:48:59;;;;;;;14.07;8.70;;;;;;;;;;5071897;28;20058;-65
2021/05/03 01:51:27;;;;;;;12.85;7.93;;;;;;;;;;5073069;28;20101;-65
2021/05/03 01:53:54;;;;;;;12.55;8.40;;;;;;;;;;5072509;28;20106;-67
2021/05/03 01:56:24;;;;;;;14.20;9.05;;;;;;;;;;5072549;28;20079;-65
2021/05/03 01:58:52;;;;;;;15.23;9.55;;;;;;;;;;5072398;28;20127;-66
2021/05/03 02:01:19;;;;;;;14.10;9.25;;;;;;;;;;5072283;28;20044;-66
2021/05/03 02:03:47;;;;;;;14.93;9.70;;;;;;;;;;5072523;28;20059;-66
2021/05/03 02:06:14;;;;;;;20.15;10.68;;;;;;;;;;5071886;28;20053;-66
2021/05/03 02:08:41;;;;;;;17.75;11.05;;;;;;;;;;5072559;28;20131;-65
2021/05/03 02:11:09;;;;;;;15.18;9.88;;;;;;;;;;5072280;28;20068;-65
2021/05/03 02:13:38;;;;;;;15.02;10.52;;;;;;;;;;5072407;28;20040;-66
2021/05/03 02:16:06;;;;;;;15.75;10.05;;;;;;;;;;5073070;28;20049;-65
2021/05/03 02:18:34;;;;;;;17.67;11.25;;;;;;;;;;5060120;28;20103;-67
2021/05/03 02:21:01;;;;;;;15.52;10.55;;;;;;;;;;5075586;28;20068;-65
2021/05/03 02:23:28;;;;;;;15.85;10.57;;;;;;;;;;5076247;28;20080;-66
2021/05/03 02:25:55;;;;;;;17.95;11.05;;;;;;;;;;5072601;28;20080;-64
2021/05/03 02:28:23;;;;;;;18.55;11.18;;;;;;;;;;5071383;28;20086;-65
2021/05/03 02:30:51;;;;;;;17.98;11.75;;;;;;;;;;5071079;28;20132;-65
2021/05/03 02:33:18;;;;;;;19.02;10.90;;;;;;;;;;5072100;28;20125;-65
2021/05/03 02:35:46;;;;;;;18.90;11.63;;;;;;;;;;5072525;28;20137;-66
2021/05/03 02:38:13;;;;;;;18.83;12.05;;;;;;;;;;5071562;28;20118;-65
2021/05/03 02:40:41;;;;;;;16.33;10.73;;;;;;;;;;5070970;28;20060;-65
2021/05/03 02:43:08;;;;;;;17.58;11.38;;;;;;;;;;5072166;28;20068;-66
2021/05/03 02:45:36;;;;;;;19.83;11.50;;;;;;;;;;5071800;28;20143;-64
2021/05/03 02:48:05;;;;;;;18.00;11.65;;;;;;;;;;5070547;28;20048;-65
2021/05/03 02:50:32;;;;;;;17.98;11.85;;;;;;;;;;5070866;28;20145;-65
2021/05/03 02:53:00;;;;;;;19.98;12.00;;;;;;;;;;5072322;28;20052;-65
2021/05/03 02:55:27;;;;;;;19.27;12.38;;;;;;;;;;5071733;28;20135;-66
2021/05/03 02:57:55;;;;;;;20.88;12.02;;;;;;;;;;5071606;28;20091;-66
2021/05/03 03:00:25;;;;;;;20.05;12.07;;;;;;;;;;5071536;28;20048;-65
2021/05/03 03:02:52;;;;;;;19.58;11.70;;;;;;;;;;5070895;28;20102;-66
2021/05/03 03:05:21;;;;;;;17.63;11.80;;;;;;;;;;5072723;28;20621;-65
2021/05/03 03:07:49;;;;;;;16.83;10.70;;;;;;;;;;5070721;28;20575;-65
2021/05/03 03:10:16;;;;;;;20.45;12.63;;;;;;;;;;5069488;28;20107;-66
2021/05/03 03:12:44;;;;;;;17.95;12.07;;;;;;;;;;5072277;28;20048;-65
2021/05/03 03:15:13;;;;;;;19.65;11.20;;;;;;;;;;5071430;28;20051;-65
2021/05/03 03:17:41;;;;;;;17.85;11.75;;;;;;;;;;5071023;28;20102;-65
2021/05/03 03:20:09;;;;;;;18.50;12.18;;;;;;;;;;5070947;28;20048;-65
2021/05/03 03:22:38;;;;;;;18.45;11.32;;;;;;;;;;5070366;28;20119;-66
2021/05/03 03:25:06;;;;;;;17.17;11.43;;;;;;;;;;5071393;28;20430;-64
2021/05/03 03:27:33;;;;;;;17.58;11.60;;;;;;;;;;5064808;28;20071;-66
2021/05/03 03:30:01;;;;;;;21.60;12.15;;;;;;;;;;5071286;28;20053;-66
2021/05/03 03:32:28;;;;;;;17.45;11.55;;;;;;;;;;5070537;28;20048;-65
2021/05/03 03:34:56;;;;;;;18.20;11.27;;;;;;;;;;5069868;28;20048;-66
2021/05/03 03:37:23;;;;;;;17.42;11.55;;;;;;;;;;5062521;28;20143;-65
2021/05/03 03:39:52;;;;;;;19.10;12.60;;;;;;;;;;5070615;28;20123;-66
2021/05/03 03:42:19;;;;;;;18.05;11.15;;;;;;;;;;5071315;28;20054;-66
2021/05/03 03:44:47;;;;;;;20.08;11.00;;;;;;;;;;5070646;28;20534;-66
2021/05/03 03:47:14;;;;;;;16.33;11.38;;;;;;;;;;5069932;28;20086;-65
2021/05/03 03:49:43;;;;;;;21.08;12.15;;;;;;;;;;5070922;28;20055;-65
2021/05/03 03:52:10;;;;;;;18.85;11.88;;;;;;;;;;5070420;28;20048;-65
2021/05/03 03:54:37;;;;;;;17.08;11.23;;;;;;;;;;5070831;28;20072;-65
2021/05/03 03:57:06;;;;;;;18.15;11.93;;;;;;;;;;5070299;28;20128;-66
2021/05/03 03:59:39;;;;;;;18.45;11.73;;;;;;;;;;5070924;28;20407;-67
2021/05/03 04:02:06;;;;;;;17.92;10.85;;;;;;;;;;5069622;28;20471;-65
2021/05/03 04:04:35;;;;;;;18.67;11.50;;;;;;;;;;5070464;28;20446;-66
2021/05/03 04:07:10;;;;;;;19.48;12.20;;;;;;;;;;5069809;28;20068;-66
2021/05/03 04:09:43;;;;;;;20.58;12.88;;;;;;;;;;5071156;28;20049;-66
2021/05/03 04:12:25;;;;;;;18.75;11.85;;;;;;;;;;5070028;28;20076;-66
2021/05/03 04:25:56;;;;;;;20.10;11.63;;;;;;;;;;5064374;28;20114;-66
2021/05/03 04:28:24;;;;;;;18.75;11.57;;;;;;;;;;5070713;28;20106;-65
2021/05/03 04:30:52;;;;;;;21.52;11.40;;;;;;;;;;5070960;28;20404;-66
2021/05/03 04:33:20;;;;;;;18.15;11.30;;;;;;;;;;5069907;28;20538;-67
2021/05/03 04:35:48;;;;;;;16.48;10.52;;;;;;;;;;5065794;28;20067;-66
2021/05/03 04:38:15;;;;;;;16.42;10.77;;;;;;;;;;5069374;28;20087;-65
2021/05/03 04:40:45;;;;;;;18.30;9.57;;;;;;;;;;5071229;28;20048;-66
2021/05/03 04:43:13;;;;;;;15.18;9.68;;;;;;;;;;5071672;28;20147;-65
2021/05/03 04:45:41;;;;;;;20.90;11.50;;;;;;;;;;5071640;28;20068;-66
2021/05/03 04:48:09;;;;;;;19.27;11.05;;;;;;;;;;5073583;28;20505;-66
2021/05/03 04:50:36;;;;;;;16.55;10.57;;;;;;;;;;5074121;28;20110;-66
2021/05/03 04:53:04;;;;;;;16.50;10.25;;;;;;;;;;5074883;28;20447;-66
2021/05/03 04:55:31;;;;;;;17.63;10.52;;;;;;;;;;5077536;28;20385;-66
2021/05/03 04:57:59;;;;;;;16.70;10.90;;;;;;;;;;5073869;28;20052;-68
2021/05/03 05:00:27;;;;;;;19.15;11.52;;;;;;;;;;5067679;28;20041;-66
2021/05/03 05:02:55;;;;;;;15.77;10.07;;;;;;;;;;5073518;28;20052;-66
2021/05/03 05:05:23;;;;;;;14.48;9.88;;;;;;;;;;5066644;28;20102;-65
2021/05/03 05:07:50;;;;;;;19.20;11.07;;;;;;;;;;5065156;28;20139;-66
2021/05/03 05:10:18;;;;;;;19.17;10.80;;;;;;;;;;5068004;28;20075;-66
2021/05/03 05:12:45;;;;;;;18.00;9.63;;;;;;;;;;5072873;28;20076;-65
2021/05/03 05:15:13;;;;;;;15.68;10.35;;;;;;;;;;5073377;28;20048;-65
2021/05/03 05:17:41;;;;;;;18.38;11.18;;;;;;;;;;5073555;28;20057;-66
2021/05/03 05:20:10;;;;;;;16.30;10.30;;;;;;;;;;5070192;28;20083;-65
2021/05/03 05:22:37;;;;;;;16.33;9.93;;;;;;;;;;5070046;28;20044;-65
2021/05/03 05:25:05;;;;;;;18.30;9.90;;;;;;;;;;5071552;28;20051;-66
2021/05/03 05:27:32;;;;;;;19.23;11.90;;;;;;;;;;5071913;28;20079;-65
2021/05/03 05:30:00;;;;;;;16.98;8.80;;;;;;;;;;5061932;28;20508;-65
2021/05/03 05:32:28;;;;;;;18.88;10.55;;;;;;;;;;5066992;28;20048;-66
2021/05/03 05:34:56;;;;;;;16.00;10.40;;;;;;;;;;5066155;28;20106;-67
2021/05/03 05:37:24;;;;;;;18.23;10.85;;;;;;;;;;5065363;28;20563;-67
2021/05/03 05:39:51;;;;;;;19.92;11.23;;;;;;;;;;5068752;28;20510;-67
2021/05/03 05:42:19;;;;;;;17.38;10.70;;;;;;;;;;5073160;28;20048;-66
2021/05/03 05:44:46;;;;;;;17.45;10.32;;;;;;;;;;5069139;28;20496;-66
2021/05/03 05:47:14;;;;;;;18.98;11.18;;;;;;;;;;5054116;28;20305;-67
2021/05/03 05:49:43;;;;;;;20.17;10.80;;;;;;;;;;5065203;28;20400;-66
2021/05/03 05:52:10;;;;;;;17.77;10.02;;;;;;;;;;5070405;28;20137;-66
2021/05/03 05:54:38;;;;;;;18.67;11.30;;;;;;;;;;5066732;28;20141;-66
2021/05/03 05:57:06;;;;;;;16.75;10.40;;;;;;;;;;5069851;28;20045;-65
2021/05/03 05:59:34;;;;;;;19.20;11.10;;;;;;;;;;5060083;28;20548;-67
2021/05/03 06:02:02;;;;;;;27.08;12.85;;;;;;;;;;5066288;28;20053;-66
2021/05/03 06:04:32;;;;;;;17.00;11.15;;;;;;;;;;5066753;28;20400;-66
2021/05/03 06:07:00;;;;;;;18.10;11.00;;;;;;;;;;5069125;28;20446;-65
2021/05/03 06:09:48;;;;;;;17.45;11.13;;;;;;;;;;5067668;28;20519;-66
2021/05/03 06:12:16;;;;;;;17.25;10.88;;;;;;;;;;5069008;28;20411;-65
2021/05/03 06:14:43;;;;;;;16.05;10.57;;;;;;;;;;5065710;28;20450;-66
2021/05/03 06:17:11;;;;;;;18.92;11.02;;;;;;;;;;5061762;28;20044;-65
2021/05/03 06:19:40;;;;;;;18.27;11.32;;;;;;;;;;5065054;28;20124;-65
2021/05/03 06:22:17;;;;;;;18.55;11.57;;;;;;;;;;5066602;28;20074;-66
2021/05/03 06:24:47;;;;;;;18.48;11.18;;;;;;;;;;5065194;28;20044;-65
2021/05/03 06:27:15;;;;;;;17.67;10.82;;;;;;;;;;5059405;28;20392;-66
2021/05/03 06:29:44;;;;;;;15.57;10.38;;;;;;;;;;5057939;28;20496;-66
2021/05/03 06:32:11;;;;;;;18.48;10.40;;;;;;;;;;5060924;28;20060;-66
2021/05/03 06:34:40;;;;;;;20.52;11.90;;;;;;;;;;5060970;28;20434;-66
2021/05/03 06:37:09;;;;;;;18.95;10.98;;;;;;;;;;5063439;28;20044;-68
2021/05/03 06:39:37;;;;;;;17.23;11.07;;;;;;;;;;5061351;28;20106;-67
2021/05/03 06:42:05;;;;;;;16.08;10.70;;;;;;;;;;5066487;28;20454;-65
2021/05/03 06:44:35;;;;;;;18.10;11.43;;;;;;;;;;5050405;28;20496;-66
2021/05/03 06:47:03;;;;;;;17.17;11.05;;;;;;;;;;5055183;28;20064;-66
2021/05/03 06:49:31;;;;;;;21.08;12.23;;;;;;;;;;5060348;28;20399;-68
2021/05/03 06:51:59;;;;;;;16.80;11.25;;;;;;;;;;5065643;28;20048;-66
2021/05/03 06:54:27;;;;;;;16.95;11.05;;;;;;;;;;5064311;28;20044;-64
2021/05/03 06:56:54;;;;;;;18.20;11.68;;;;;;;;;;5062908;28;20072;-66
2021/05/03 06:59:24;;;;;;;19.13;12.00;;;;;;;;;;5060277;28;20629;-66
2021/05/03 07:01:55;;;;;;;17.00;10.80;;;;;;;;;;5062684;28;20056;-66
2021/05/03 07:04:25;;;;;;;17.30;11.32;;;;;;;;;;5057517;28;20049;-66
2021/05/03 07:06:52;;;;;;;17.73;11.15;;;;;;;;;;5062588;28;20041;-65
2021/05/03 07:09:21;;;;;;;17.15;11.32;;;;;;;;;;5063195;28;20063;-66
2021/05/03 07:11:51;;;;;;;22.98;12.20;;;;;;;;;;5060263;28;20055;-65
2021/05/03 07:14:21;;;;;;;21.17;12.52;;;;;;;;;;5064461;28;20045;-65
2021/05/03 07:16:49;;;;;;;20.33;11.60;;;;;;;;;;5058877;28;20076;-65
2021/05/03 07:19:18;;;;;;;19.40;11.82;;;;;;;;;;5059604;28;20124;-65
2021/05/03 07:21:46;;;;;;;16.48;10.75;;;;;;;;;;5063569;28;20056;-65
2021/05/03 07:24:15;;;;;;;16.75;11.13;;;;;;;;;;5064348;28;20488;-64
2021/05/03 07:26:43;;;;;;;17.90;10.80;;;;;;;;;;5062633;28;20101;-65
2021/05/03 07:29:11;;;;;;;19.02;10.45;;;;;;;;;;5050591;28;20052;-65
2021/05/03 07:31:40;;;;;;;18.60;10.90;;;;;;;;;;5062773;28;20454;-65
2021/05/03 07:34:09;;;;;;;17.50;10.60;;;;;;;;;;5054817;28;20040;-65
2021/05/03 07:36:40;;;;;;;17.92;11.15;;;;;;;;;;5061543;28;20072;-65
2021/05/03 07:39:08;;;;;;;17.67;10.45;;;;;;;;;;5063224;28;20399;-66
2021/05/03 07:41:36;;;;;;;16.05;10.18;;;;;;;;;;5060173;28;20055;-65
2021/05/03 07:44:05;;;;;;;15.82;9.35;;;;;;;;;;5066510;28;20045;-66
2021/05/03 07:46:34;;;;;;;15.75;9.95;;;;;;;;;;5058806;28;20049;-66
2021/05/03 07:49:02;;;;;;;15.45;9.30;;;;;;;;;;5060866;28;20052;-66
2021/05/03 07:51:30;;;;;;;15.25;9.80;;;;;;;;;;5062692;28;20306;-65
2021/05/03 07:54:00;;;;;;;13.85;9.40;;;;;;;;;;5061620;28;20052;-66
2021/05/03 07:56:31;;;;;;;14.80;9.50;;;;;;;;;;5058018;28;20150;-66
2021/05/03 07:59:03;;;;;;;;;;;;;;;;;;5057807;28;20094;-65
2021/05/03 08:01:32;;;;;;;15.18;8.57;;;;;;;;;;5054847;28;20031;-66
2021/05/03 08:04:00;;;;;;;14.52;8.88;;;;;;;;;;5056749;28;20503;-66
2021/05/03 08:06:28;;;;;;;13.88;8.88;;;;;;;;;;5040881;28;20139;-66
2021/05/03 08:08:58;;;;;;;14.45;8.48;;;;;;;;;;5041171;28;20076;-66
2021/05/03 08:11:26;;;;;;;14.07;7.97;;;;;;;;;;5040287;28;20493;-66
2021/05/03 08:13:55;;;;;;;14.55;8.50;;;;;;;;;;5037097;28;20850;-65
2021/05/03 08:16:24;;;;;;;16.10;9.48;;;;;;;;;;5040530;28;20530;-65
2021/05/03 08:18:52;;;;;;;14.23;8.35;;;;;;;;;;5037361;28;20110;-66
2021/05/03 08:21:20;;;;;;;16.70;8.85;;;;;;;;;;5042417;28;20364;-67
2021/05/03 08:23:48;;;;;;;13.45;8.57;;;;;;;;;;5043275;28;20477;-66
2021/05/03 08:26:16;;;;;;;14.43;8.70;;;;;;;;;;5039531;28;20040;-67
2021/05/03 08:28:48;;;;;;;12.98;8.18;;;;;;;;;;5035923;28;20056;-66
2021/05/03 08:31:16;;;;;;;11.75;7.85;;;;;;;;;;5036547;28;20049;-66
2021/05/03 08:33:46;;;;;;;12.60;7.97;;;;;;;;;;5044760;28;20041;-66
2021/05/03 08:36:14;;;;;;;10.68;7.20;;;;;;;;;;5042731;28;20091;-67
2021/05/03 08:38:42;;;;;;;12.85;8.82;;;;;;;;;;5040513;28;20049;-67
2021/05/03 08:41:13;;;;;;;14.90;8.98;;;;;;;;;;5035904;28;20044;-67
2021/05/03 08:43:42;;;;;;;14.75;9.05;;;;;;;;;;5043470;28;20094;-66
2021/05/03 08:46:15;;;;;;;14.52;9.18;;;;;;;;;;5038258;28;20459;-66
2021/05/03 08:48:53;;;;;;;18.15;9.55;;;;;;;;;;5044235;28;20049;-66
2021/05/03 08:51:30;;;;;;;15.48;9.48;;;;;;;;;;5038465;28;20048;-67
2021/05/03 08:54:02;;;;;;;16.10;9.02;;;;;;;;;;5039798;28;20048;-66
2021/05/03 08:56:30;;;;;;;15.13;9.13;;;;;;;;;;5044549;28;20060;-66
2021/05/03 08:58:58;;;;;;;11.15;6.50;;;;;;;;;;5039746;28;20118;-67
2021/05/03 09:01:27;;;;;;;8.55;5.57;;;;;;;;;;5041277;28;20049;-66
2021/05/03 09:03:56;;;;;;;7.63;4.78;;;;;;;;;;5044686;28;20126;-66
2021/05/03 09:06:24;;;;;;;10.07;5.32;;;;;;;;;;5061843;28;20059;-67
2021/05/03 09:09:02;;;;;;;9.05;5.35;;;;;;;;;;5062989;28;20408;-65
2021/05/03 09:11:30;;;;;;;12.95;6.93;;;;;;;;;;5060455;28;20586;-66
2021/05/03 09:14:15;;;;;;;;;;;;;;;;;;5063189;28;20535;-64
2021/05/03 09:16:45;;;;;;;9.02;5.38;;;;;;;;;;5064100;28;19925;-64
2021/05/03 09:19:14;;;;;;;9.50;5.50;;;;;;;;;;5062731;28;20488;-64
2021/05/03 09:21:43;;;;;;;12.07;5.68;;;;;;;;;;5052705;28;20824;-64
2021/05/03 09:24:12;;;;;;;8.93;5.53;;;;;;;;;;5053300;28;20044;-64
2021/05/03 09:26:44;;;;;;;12.45;6.55;;;;;;;;;;5064127;28;20060;-64
2021/05/03 09:29:28;;;;;;;12.60;6.85;;;;;;;;;;5054660;28;20109;-64
2021/05/03 09:31:58;;;;;;;11.02;7.03;;;;;;;;;;5064790;28;20052;-65
2021/05/03 09:34:26;;;;;;;8.98;4.95;;;;;;;;;;5062393;28;20080;-65
2021/05/03 09:36:55;;;;;;;8.32;5.03;;;;;;;;;;5067531;28;20474;-66
2021/05/03 09:39:30;;;;;;;7.78;4.60;;;;;;;;;;5060665;28;20040;-64
2021/05/03 09:41:58;;;;;;;5.10;3.90;;;;;;;;;;5065952;28;20048;-65
2021/05/03 09:44:26;;;;;;;5.38;4.00;;;;;;;;;;5067542;28;20131;-65
2021/05/03 09:46:58;;;;;;;7.25;3.83;;;;;;;;;;5066234;28;20048;-65
2021/05/03 09:49:27;;;;;;;7.90;3.38;;;;;;;;;;5064214;28;20421;-65
2021/05/03 09:51:57;;;;;;;5.85;3.90;;;;;;;;;;5060430;28;20469;-64
2021/05/03 09:54:26;;;;;;;9.05;4.88;;;;;;;;;;5063677;28;20139;-65
2021/05/03 09:56:55;;;;;;;6.30;4.85;;;;;;;;;;5049701;28;20205;-64
2021/05/03 09:59:27;;;;;;;7.05;4.30;;;;;;;;;;5060034;28;20052;-65
2021/05/03 10:02:02;;;;;;;8.18;5.10;;;;;;;;;;5059681;28;20053;-66
2021/05/03 10:04:32;;;;;;;10.43;6.05;;;;;;;;;;5056555;28;20120;-65
2021/05/03 10:07:00;;;;;;;9.55;6.07;;;;;;;;;;5061262;28;20049;-65
2021/05/03 10:09:30;;;;;;;12.02;5.97;;;;;;;;;;5064360;28;20070;-65
2021/05/03 10:11:58;;;;;;;9.10;5.78;;;;;;;;;;5066024;28;20044;-65
2021/05/03 10:14:28;;;;;;;11.43;6.35;;;;;;;;;;5065617;28;20490;-65
2021/05/03 10:16:57;;;;;;;9.32;6.13;;;;;;;;;;5064390;28;20054;-65
2021/05/03 10:19:25;;;;;;;12.15;5.25;;;;;;;;;;5062066;28;20066;-66
2021/05/03 10:21:54;;;;;;;8.43;4.88;;;;;;;;;;5065648;28;20138;-65
2021/05/03 10:24:23;;;;;;;7.63;4.80;;;;;;;;;;5064667;28;20128;-66
2021/05/03 10:26:52;;;;;;;9.23;5.72;;;;;;;;;;5059188;28;20063;-66
2021/05/03 10:29:27;;;;;;;7.15;5.35;;;;;;;;;;5063606;28;20080;-65
2021/05/03 10:32:05;;;;;;;9.30;5.60;;;;;;;;;;5063988;28;20573;-66
2021/05/03 10:34:38;;;;;;;8.75;5.25;;;;;;;;;;5064631;28;20498;-66
2021/05/03 10:37:28;;;;;;;5.75;4.28;;;;;;;;;;5060469;28;20438;-66
2021/05/03 10:39:56;;;;;;;6.95;4.88;;;;;;;;;;5058461;28;20063;-66
2021/05/03 10:42:24;;;;;;;6.05;4.57;;;;;;;;;;5063144;28;20110;-65
2021/05/03 10:45:11;;;;;;;6.43;4.70;;;;;;;;;;5065292;28;20044;-65
2021/05/03 10:47:48;;;;;;;7.50;4.90;;;;;;;;;;5055319;28;20139;-65
2021/05/03 10:50:41;;;;;;;6.97;4.40;;;;;;;;;;5052638;28;20060;-65
2021/05/03 10:53:31;;;;;;;6.85;4.60;;;;;;;;;;5058074;28;20566;-65
2021/05/03 10:56:04;;;;;;;8.55;5.00;;;;;;;;;;5056402;28;20048;-65
2021/05/03 10:58:32;;;;;;;8.20;5.13;;;;;;;;;;5056371;28;20408;-65
2021/05/03 11:01:04;;;;;;;7.03;5.13;;;;;;;;;;5060568;28;20362;-64
2021/05/03 11:03:50;;;;;;;7.18;5.10;;;;;;;;;;5059369;28;20056;-65
2021/05/03 11:06:50;;;;;;;8.82;5.75;;;;;;;;;;5060167;28;20063;-66
2021/05/03 11:09:42;;;;;;;7.57;5.00;;;;;;;;;;5045947;28;20488;-65
2021/05/03 11:12:33;;;;;;;7.70;5.03;;;;;;;;;;5035640;28;20059;-65
2021/05/03 11:15:09;;;;;;;10.45;5.72;;;;;;;;;;5056158;28;20040;-65
2021/05/03 11:17:37;;;;;;;8.30;5.75;;;;;;;;;;5058914;28;20041;-64
2021/05/03 11:20:09;;;;;;;6.63;5.05;;;;;;;;;;5061228;28;20041;-64
2021/05/03 11:22:44;;;;;;;9.25;5.85;;;;;;;;;;5061625;28;20436;-64
2021/05/03 11:25:15;;;;;;;7.65;4.72;;;;;;;;;;5062975;28;20588;-64
2021/05/03 11:27:51;;;;;;;7.28;5.28;;;;;;;;;;5063150;28;20121;-64
2021/05/03 11:30:25;;;;;;;7.38;4.82;;;;;;;;;;5057744;28;20085;-64
2021/05/03 11:32:55;;;;;;;8.60;5.65;;;;;;;;;;5059967;28;20074;-64
2021/05/03 11:35:29;;;;;;;9.48;5.43;;;;;;;;;;5068450;28;20047;-65
2021/05/03 11:38:02;;;;;;;9.10;6.05;;;;;;;;;;5067085;28;20401;-64
2021/05/03 11:40:49;;;;;;;9.45;5.93;;;;;;;;;;5065409;28;20118;-64
2021/05/03 11:43:53;;;;;;;8.73;5.43;;;;;;;;;;5065164;28;20139;-64
2021/05/03 11:46:26;;;;;;;8.00;5.47;;;;;;;;;;5063088;28;20492;-65
2021/05/03 11:48:55;;;;;;;8.75;5.43;;;;;;;;;;5044749;28;20068;-65
2021/05/03 11:51:22;;;;;;;9.15;5.97;;;;;;;;;;5063541;28;20048;-65
2021/05/03 11:53:51;;;;;;;6.95;5.60;;;;;;;;;;5065305;28;20064;-65
2021/05/03 11:56:19;;;;;;;9.13;5.78;;;;;;;;;;5063500;28;20044;-65
2021/05/03 11:58:48;;;;;;;8.23;5.15;;;;;;;;;;5062971;28;20143;-64
2021/05/03 12:01:16;;;;;;;8.27;4.85;;;;;;;;;;5064587;28;20121;-65
2021/05/03 12:03:59;;;;;;;7.35;5.00;;;;;;;;;;4036711;28;10002191;-65
2021/05/03 12:06:37;;;;;;;6.38;5.10;;;;;;;;;;2091580;28;10002137;-66
2021/05/03 12:09:06;;;;;;;6.63;4.47;;;;;;;;;;5057340;28;20488;-64
2021/05/03 12:11:35;;;;;;;6.35;4.50;;;;;;;;;;5054700;28;20426;-64
2021/05/03 12:14:04;;;;;;;7.10;4.75;;;;;;;;;;5064443;28;20139;-65
2021/05/03 12:16:33;;;;;;;7.50;4.57;;;;;;;;;;5063125;28;20408;-65
2021/05/03 12:19:01;;;;;;;6.80;4.55;;;;;;;;;;5062769;28;20492;-65
2021/05/03 12:21:30;;;;;;;9.35;4.90;;;;;;;;;;5061086;28;20518;-65
2021/05/03 12:24:11;;;;;;;7.65;5.13;;;;;;;;;;5061423;28;20071;-65
2021/05/03 12:26:51;;;;;;;9.57;5.03;;;;;;;;;;5064676;28;20049;-65
2021/05/03 12:29:20;;;;;;;8.25;4.57;;;;;;;;;;5063349;28;20044;-65
2021/05/03 12:31:48;;;;;;;8.15;5.13;;;;;;;;;;5067560;28;20106;-65
2021/05/03 12:34:21;;;;;;;7.15;4.85;;;;;;;;;;5064408;28;20087;-65
2021/05/03 12:37:05;;;;;;;6.53;4.50;;;;;;;;;;5064129;28;20533;-65
2021/05/03 12:39:34;;;;;;;7.30;4.03;;;;;;;;;;5064943;28;20117;-65
2021/05/03 12:42:15;;;;;;;6.82;3.95;;;;;;;;;;5066190;28;20153;-65
2021/05/03 12:44:48;;;;;;;5.57;3.97;;;;;;;;;;5065058;28;20517;-65
2021/05/03 12:47:32;;;;;;;6.30;4.63;;;;;;;;;;5057736;28;20083;-65
2021/05/03 12:50:05;;;;;;;6.07;4.40;;;;;;;;;;5060673;28;20080;-65
2021/05/03 12:52:38;;;;;;;4.88;3.92;;;;;;;;;;5063333;28;20044;-65
2021/05/03 12:55:12;;;;;;;5.55;3.80;;;;;;;;;;5064477;28;20052;-65
2021/05/03 12:57:47;;;;;;;6.00;4.00;;;;;;;;;;5062554;28;20478;-65
2021/05/03 13:00:18;;;;;;;5.50;3.70;;;;;;;;;;5063784;28;20063;-65
2021/05/03 13:03:10;;;;;;;5.00;3.28;;;;;;;;;;5060200;28;20049;-65
2021/05/03 13:05:48;;;;;;;9.77;5.18;;;;;;;;;;5063217;28;20392;-65
2021/05/03 13:08:45;;;;;;;5.35;3.50;;;;;;;;;;5065636;28;20496;-65
2021/05/03 13:11:51;;;;;;;9.80;3.63;;;;;;;;;;5061341;28;20484;-65
2021/05/03 13:23:52;;;;;;;6.43;3.70;;;;;;;;;;5068455;28;20401;-65
2021/05/03 13:29:09;;;;;;;4.72;3.20;;;;;;;;;;4949020;28;20065;-65
2021/05/03 13:31:37;;;;;;;5.22;3.05;;;;;;;;;;4983935;28;20487;-65
2021/05/03 13:34:07;;;;;;;5.78;3.55;;;;;;;;;;5022784;28;20480;-66
2021/05/03 13:36:35;;;;;;;2.95;2.42;;;;;;;;;;5067073;28;20048;-65
2021/05/03 13:39:04;;;;;;;5.20;3.72;;;;;;;;;;5062702;28;20127;-65
2021/05/03 13:41:34;;;;;;;3.78;2.60;;;;;;;;;;5065234;28;20139;-65
2021/05/03 13:44:02;;;;;;;3.08;2.22;;;;;;;;;;5066544;28;20052;-65
2021/05/03 13:46:29;;;;;;;5.45;2.50;;;;;;;;;;5063389;28;20045;-65
2021/05/03 13:48:59;;;;;;;3.58;2.45;;;;;;;;;;5065719;28;20086;-66
2021/05/03 13:51:28;;;;;;;6.40;2.55;;;;;;;;;;5067098;28;20512;-65
2021/05/03 13:53:58;;;;;;;7.00;4.00;;;;;;;;;;5067291;28;20044;-65
2021/05/03 13:56:26;;;;;;;7.32;4.68;;;;;;;;;;5057724;28;20468;-65
2021/05/03 13:58:54;;;;;;;8.77;4.15;;;;;;;;;;5061777;28;20108;-65
2021/05/03 14:01:22;;;;;;;6.13;4.15;;;;;;;;;;5065226;28;20549;-65
2021/05/03 14:03:51;;;;;;;6.32;3.67;;;;;;;;;;5066199;28;20553;-65
2021/05/03 14:06:19;;;;;;;6.50;3.90;;;;;;;;;;5068521;28;20056;-65
2021/05/03 14:08:48;;;;;;;6.65;4.05;;;;;;;;;;5076458;28;20052;-65
2021/05/03 14:11:16;;;;;;;6.00;3.72;;;;;;;;;;5067707;28;20431;-65
2021/05/03 14:13:44;;;;;;;7.60;4.05;;;;;;;;;;5067880;28;20047;-65
2021/05/03 14:16:13;;;;;;;5.28;3.90;;;;;;;;;;5063272;28;20520;-65
2021/05/03 14:18:42;;;;;;;5.25;3.33;;;;;;;;;;5063069;28;20041;-65
2021/05/03 14:21:11;;;;;;;5.28;3.70;;;;;;;;;;5067544;28;20550;-64
2021/05/03 14:23:40;;;;;;;7.15;3.78;;;;;;;;;;5067263;28;20048;-64
2021/05/03 14:26:10;;;;;;;8.52;3.47;;;;;;;;;;5071728;28;20048;-65
2021/05/03 14:28:42;;;;;;;7.53;4.28;;;;;;;;;;5066269;28;20454;-65
2021/05/03 14:31:12;;;;;;;4.70;3.45;;;;;;;;;;5066187;28;20403;-65
2021/05/03 14:33:49;;;;;;;4.47;3.60;;;;;;;;;;5066283;28;20158;-65
2021/05/03 14:36:19;;;;;;;7.20;3.25;;;;;;;;;;5067741;28;20052;-66
2021/05/03 14:38:46;;;;;;;5.22;3.65;;;;;;;;;;5066317;28;20114;-65
2021/05/03 14:41:15;;;;;;;5.80;3.92;;;;;;;;;;5066490;28;20124;-65
2021/05/03 14:43:44;;;;;;;5.85;3.90;;;;;;;;;;5064937;28;20044;-65
2021/05/03 14:46:15;;;;;;;7.07;3.33;;;;;;;;;;5060809;28;20480;-65
2021/05/03 14:48:44;;;;;;;6.40;3.47;;;;;;;;;;5061177;28;20079;-65
2021/05/03 14:51:27;;;;;;;7.72;3.97;;;;;;;;;;5064220;28;20048;-64
2021/05/03 14:54:09;;;;;;;6.00;3.72;;;;;;;;;;5067515;28;20052;-65
2021/05/03 14:56:39;;;;;;;7.60;3.58;;;;;;;;;;5070878;28;20140;-64
2021/05/03 14:59:07;;;;;;;5.25;3.10;;;;;;;;;;5071059;28;20427;-65
2021/05/03 15:01:35;;;;;;;5.45;3.67;;;;;;;;;;5058297;28;20052;-65
2021/05/03 15:04:05;;;;;;;5.07;3.28;;;;;;;;;;5068860;28;20053;-65
2021/05/03 15:06:34;;;;;;;5.88;3.50;;;;;;;;;;5065524;28;20095;-64
2021/05/03 15:09:02;;;;;;;4.53;3.00;;;;;;;;;;5070013;28;20543;-64
2021/05/03 15:11:32;;;;;;;4.75;2.97;;;;;;;;;;5068710;28;20053;-64